createdAt,value
2023-11-24T00:03:06.838Z,96.28
2023-11-24T00:31:51.760Z,97.62
2023-11-24T01:00:44.808Z,100
2023-11-24T01:29:43.605Z,100
2023-11-24T01:58:48.094Z,100
2023-11-24T02:27:54.128Z,100
2023-11-24T02:56:53.264Z,100
2023-11-24T03:26:01.684Z,100
2023-11-24T03:55:07.776Z,100
2023-11-24T04:24:01.226Z,100
2023-11-24T04:53:02.524Z,100
2023-11-24T05:21:58.248Z,100
2023-11-24T05:50:58.674Z,100
2023-11-24T06:20:03.371Z,100
2023-11-24T06:49:05.798Z,100
2023-11-24T07:18:12.822Z,100
2023-11-24T07:47:20.695Z,100
2023-11-24T08:16:13.774Z,100
2023-11-24T08:45:13.870Z,100
2023-11-24T09:14:25.790Z,100
2023-11-24T09:43:25.760Z,100
2023-11-24T10:12:16.584Z,84.64
2023-11-24T10:41:22.683Z,67.91
2023-11-24T11:10:04.041Z,74.15
2023-11-24T11:39:00.094Z,65.95
2023-11-24T12:07:55.207Z,66.01
2023-11-24T12:37:01.342Z,64.61
2023-11-24T13:06:08.591Z,67.34
2023-11-24T13:35:21.470Z,63.34
2023-11-24T14:04:06.993Z,55.23
2023-11-24T14:33:02.531Z,57.14
2023-11-24T15:02:05.802Z,60.63
2023-11-24T15:30:57.266Z,65.97
2023-11-24T15:59:50.815Z,74.66
2023-11-24T16:28:52.261Z,79
2023-11-24T16:57:45.672Z,98.98
2023-11-24T17:26:59.410Z,99.37
2023-11-24T17:56:04.784Z,97.43
2023-11-24T18:25:05.618Z,98.84
2023-11-24T18:54:01.200Z,94.54
2023-11-24T19:23:03.934Z,94.32
2023-11-24T19:40:14.481Z,91.83
2023-11-24T20:09:20.882Z,88.68
2023-11-24T20:38:33.864Z,87.12
2023-11-24T21:07:38.459Z,85.24
2023-11-24T21:36:25.826Z,82.42
2023-11-24T22:05:27.889Z,79.75
2023-11-24T22:34:26.596Z,84.14
2023-11-24T23:03:20.394Z,89.52
2023-11-24T23:32:20.548Z,85.69
